createdAt,value
2023-02-09T00:00:53.037Z,1.00
2023-02-09T00:03:55.476Z,1.00
2023-02-09T00:06:59.101Z,1.10
2023-02-09T00:10:02.403Z,1.10
2023-02-09T00:13:04.282Z,1.00
2023-02-09T00:16:06.514Z,1.30
2023-02-09T00:19:09.024Z,1.10
2023-02-09T00:22:11.127Z,1.00
2023-02-09T00:25:13.088Z,1.00
2023-02-09T00:28:15.121Z,1.00
2023-02-09T00:31:17.282Z,1.00
2023-02-09T00:34:19.459Z,1.00
2023-02-09T00:37:22.992Z,1.00
2023-02-09T00:40:27.177Z,0.90
2023-02-09T00:43:29.312Z,1.00
2023-02-09T00:46:31.979Z,1.00
2023-02-09T00:49:34.240Z,0.90
2023-02-09T00:52:36.211Z,0.90
2023-02-09T00:55:40.766Z,0.80
2023-02-09T00:58:42.740Z,0.70
2023-02-09T01:01:45.620Z,0.70
2023-02-09T01:04:47.534Z,0.70
2023-02-09T01:07:52.352Z,0.60
2023-02-09T01:10:58.726Z,0.60
2023-02-09T01:14:01.512Z,0.60
2023-02-09T01:17:03.641Z,0.50
2023-02-09T01:20:08.339Z,0.50
2023-02-09T01:23:10.943Z,0.50
2023-02-09T01:26:13.840Z,0.60
2023-02-09T01:29:17.656Z,0.50
2023-02-09T01:32:19.671Z,0.40
2023-02-09T01:35:22.150Z,0.50
2023-02-09T01:38:24.160Z,0.50
2023-02-09T01:41:26.869Z,0.20
2023-02-09T01:44:31.855Z,0.20
2023-02-09T01:47:45.311Z,0.20
2023-02-09T01:50:51.682Z,0.20
2023-02-09T01:53:53.759Z,0.30
2023-02-09T01:57:04.734Z,-0.10
2023-02-09T02:00:19.160Z,0.00
2023-02-09T02:03:24.173Z,-0.10
2023-02-09T02:06:26.613Z,0.00
2023-02-09T02:09:31.436Z,0.00
2023-02-09T02:12:36.703Z,0.00
2023-02-09T02:16:17.462Z,-0.10
2023-02-09T02:19:58.758Z,-0.20
2023-02-09T02:23:29.031Z,0.00
2023-02-09T02:26:55.219Z,-0.20
2023-02-09T02:30:16.237Z,-0.10
2023-02-09T02:33:39.077Z,-0.20
2023-02-09T02:36:59.283Z,-0.10
2023-02-09T02:40:22.616Z,-0.30
2023-02-09T02:43:30.394Z,-0.30
2023-02-09T02:46:42.573Z,-0.30
2023-02-09T02:49:58.990Z,-0.30
2023-02-09T02:53:04.518Z,-0.30
2023-02-09T02:56:29.824Z,-0.30
2023-02-09T02:59:40.625Z,-0.50
2023-02-09T03:02:50.171Z,-0.50
2023-02-09T03:05:52.989Z,-0.40
2023-02-09T03:08:56.950Z,-0.40
2023-02-09T03:12:28.750Z,-0.50
2023-02-09T03:16:08.885Z,-0.50
2023-02-09T03:19:35.182Z,-0.60
2023-02-09T03:22:47.159Z,-0.50
2023-02-09T03:25:52.430Z,-0.60
2023-02-09T03:28:59.451Z,-0.70
2023-02-09T03:32:01.379Z,-0.50
2023-02-09T03:35:03.780Z,-0.60
2023-02-09T03:38:05.720Z,-0.60
2023-02-09T03:41:08.123Z,-0.60
2023-02-09T03:44:10.145Z,-0.60
2023-02-09T03:47:12.195Z,-0.80
2023-02-09T03:50:14.109Z,-1.10
2023-02-09T03:53:15.999Z,-1.20
2023-02-09T03:56:17.868Z,-1.30
2023-02-09T03:59:19.838Z,-1.30
2023-02-09T04:02:24.368Z,-1.20
2023-02-09T04:05:26.412Z,-1.20
2023-02-09T04:08:29.378Z,-1.20
2023-02-09T04:11:31.509Z,-1.30
2023-02-09T04:14:33.377Z,-1.10
2023-02-09T04:17:35.926Z,-1.20
2023-02-09T04:20:40.124Z,-1.10
2023-02-09T04:23:42.514Z,-1.10
2023-02-09T04:26:44.463Z,-1.10
2023-02-09T04:29:46.383Z,-1.10
2023-02-09T04:32:48.237Z,-1.00
2023-02-09T04:35:50.908Z,-1.30
2023-02-09T04:38:52.773Z,-1.30
2023-02-09T04:41:54.715Z,-1.30
2023-02-09T04:44:56.714Z,-1.40
2023-02-09T04:47:58.684Z,-1.40
2023-02-09T04:51:04.414Z,-1.60
2023-02-09T04:54:06.325Z,-1.80
2023-02-09T04:57:08.228Z,-2.00
2023-02-09T05:00:10.833Z,-1.80
2023-02-09T05:03:12.650Z,-1.50
2023-02-09T05:06:15.078Z,-1.60
2023-02-09T05:09:16.942Z,-1.80
2023-02-09T05:12:18.936Z,-1.80
2023-02-09T05:15:20.897Z,-1.80
2023-02-09T05:18:23.564Z,-2.00
2023-02-09T05:21:25.488Z,-2.00
2023-02-09T05:24:27.536Z,-1.80
2023-02-09T05:27:29.451Z,-1.70
2023-02-09T05:30:31.429Z,-1.60
2023-02-09T05:33:33.412Z,-1.50
2023-02-09T05:36:35.305Z,-1.40
2023-02-09T05:39:37.174Z,-1.30
2023-02-09T05:42:39.147Z,-1.80
2023-02-09T05:45:41.122Z,-1.50
2023-02-09T05:48:43.058Z,-1.80
2023-02-09T05:51:44.967Z,-1.80
2023-02-09T05:54:48.144Z,-1.70
2023-02-09T05:57:50.057Z,-1.70
2023-02-09T06:00:52.206Z,-1.60
2023-02-09T06:03:54.078Z,-2.00
2023-02-09T06:06:56.482Z,-1.60
2023-02-09T06:09:59.813Z,-1.60
2023-02-09T06:13:01.668Z,-1.70
2023-02-09T06:16:04.152Z,-1.80
2023-02-09T06:19:07.614Z,-1.80
2023-02-09T06:22:11.914Z,-1.90
2023-02-09T06:25:13.971Z,-1.90
2023-02-09T06:28:15.975Z,-1.80
2023-02-09T06:31:18.012Z,-1.50
2023-02-09T06:34:20.251Z,-2.00
2023-02-09T06:37:22.173Z,-2.20
2023-02-09T06:40:24.256Z,-2.10
2023-02-09T06:43:29.340Z,-2.20
2023-02-09T06:46:32.950Z,-2.20
2023-02-09T06:49:34.946Z,-2.20
2023-02-09T06:52:37.415Z,-2.30
2023-02-09T06:55:39.364Z,-2.10
2023-02-09T06:58:41.879Z,-1.90
2023-02-09T07:01:43.910Z,-2.10
2023-02-09T07:04:46.040Z,-2.10
2023-02-09T07:07:48.216Z,-2.10
2023-02-09T07:10:50.299Z,-2.10
2023-02-09T07:13:54.987Z,-2.30
2023-02-09T07:16:56.962Z,-2.30
2023-02-09T07:19:59.093Z,-1.90
2023-02-09T07:23:01.570Z,-2.20
2023-02-09T07:26:08.652Z,-1.90
2023-02-09T07:29:12.790Z,-2.10
2023-02-09T07:32:15.676Z,-1.90
2023-02-09T07:35:18.216Z,-1.90
2023-02-09T07:38:20.376Z,-1.80
2023-02-09T07:41:23.983Z,-1.40
2023-02-09T07:44:26.183Z,-1.40
2023-02-09T07:47:28.202Z,-1.30
2023-02-09T07:50:30.174Z,-1.20
2023-02-09T07:53:32.739Z,-0.90
2023-02-09T07:56:34.941Z,-0.80
2023-02-09T07:59:37.181Z,0.20
2023-02-09T08:02:39.584Z,0.60
2023-02-09T08:06:06.596Z,1.50
2023-02-09T08:09:09.683Z,2.30
2023-02-09T08:12:12.978Z,2.70
2023-02-09T08:15:17.246Z,3.20
2023-02-09T08:18:23.833Z,3.40
2023-02-09T08:21:28.375Z,3.90
2023-02-09T08:24:30.408Z,4.30
2023-02-09T08:27:32.608Z,4.40
2023-02-09T08:30:35.254Z,4.60
2023-02-09T08:33:37.334Z,5.10
2023-02-09T08:36:41.464Z,5.20
2023-02-09T08:39:46.151Z,5.50
2023-02-09T08:42:48.374Z,5.70
2023-02-09T08:45:51.738Z,5.80
2023-02-09T08:48:54.058Z,6.00
2023-02-09T08:51:56.125Z,6.10
2023-02-09T08:54:58.125Z,5.80
2023-02-09T08:58:00.701Z,5.80
2023-02-09T09:01:03.165Z,5.50
2023-02-09T09:04:05.437Z,5.20
2023-02-09T09:07:07.523Z,5.40
2023-02-09T09:10:10.524Z,5.50
2023-02-09T09:13:15.020Z,5.80
2023-02-09T09:16:19.236Z,6.30
2023-02-09T09:19:21.627Z,6.40
2023-02-09T09:22:24.172Z,6.70
2023-02-09T09:25:26.229Z,7.10
2023-02-09T09:28:28.988Z,7.40
2023-02-09T09:31:31.392Z,7.90
2023-02-09T09:34:33.754Z,8.10
2023-02-09T09:37:38.093Z,8.10
2023-02-09T09:40:41.016Z,8.00
2023-02-09T09:43:43.273Z,8.50
2023-02-09T09:46:50.681Z,8.50
2023-02-09T09:49:52.766Z,8.40
2023-02-09T09:53:01.497Z,7.80
2023-02-09T09:56:08.164Z,7.70
2023-02-09T09:59:17.923Z,7.40
2023-02-09T10:02:23.010Z,7.30
2023-02-09T10:05:30.626Z,7.40
2023-02-09T10:08:48.058Z,7.30
2023-02-09T10:11:59.216Z,7.10
2023-02-09T10:15:19.226Z,6.90
2023-02-09T10:18:21.849Z,6.80
2023-02-09T10:21:25.931Z,7.00
2023-02-09T10:24:32.949Z,7.10
2023-02-09T10:27:38.765Z,6.80
2023-02-09T10:30:40.724Z,7.00
2023-02-09T10:33:45.857Z,7.10
2023-02-09T10:37:04.980Z,7.70
2023-02-09T10:40:17.500Z,7.70
2023-02-09T10:43:34.706Z,8.00
2023-02-09T10:46:38.484Z,8.20
2023-02-09T10:49:40.513Z,8.40
2023-02-09T10:52:54.402Z,8.80
2023-02-09T10:56:24.480Z,8.60
2023-02-09T10:59:26.364Z,8.90
2023-02-09T11:02:39.230Z,8.90
2023-02-09T11:05:41.416Z,9.20
2023-02-09T11:09:05.879Z,8.70
2023-02-09T11:12:14.414Z,9.00
2023-02-09T11:15:25.632Z,8.90
2023-02-09T11:18:32.162Z,8.20
2023-02-09T11:21:47.782Z,7.90
2023-02-09T11:25:16.487Z,8.50
2023-02-09T11:28:40.331Z,8.60
2023-02-09T11:32:19.465Z,8.90
2023-02-09T11:35:26.370Z,9.10
2023-02-09T11:38:44.147Z,8.90
2023-02-09T11:41:52.127Z,9.20
2023-02-09T11:45:00.437Z,8.60
2023-02-09T11:48:23.211Z,8.50
2023-02-09T12:03:14.298Z,8.50
2023-02-09T12:06:16.590Z,8.40
2023-02-09T12:09:30.344Z,8.20
2023-02-09T12:12:54.526Z,8.40
2023-02-09T12:16:07.312Z,8.50
2023-02-09T12:19:33.071Z,8.10
2023-02-09T12:22:34.930Z,8.40
2023-02-09T12:26:01.264Z,8.00
2023-02-09T12:29:33.179Z,8.10
2023-02-09T12:32:44.191Z,8.30
2023-02-09T12:36:00.489Z,8.10
2023-02-09T12:39:25.355Z,8.10
2023-02-09T12:42:30.027Z,8.10
2023-02-09T12:45:34.714Z,8.20
2023-02-09T12:49:01.430Z,8.20
2023-02-09T12:52:03.234Z,8.10
2023-02-09T12:55:19.528Z,8.30
2023-02-09T12:58:38.626Z,8.10
2023-02-09T13:02:03.825Z,8.40
2023-02-09T13:05:17.089Z,8.20
2023-02-09T13:08:28.452Z,8.40
2023-02-09T13:11:43.210Z,8.30
2023-02-09T13:14:49.774Z,8.10
2023-02-09T13:18:30.727Z,8.20
2023-02-09T13:21:47.387Z,8.30
2023-02-09T13:24:58.471Z,8.50
2023-02-09T13:28:19.203Z,8.50
2023-02-09T13:31:33.416Z,8.40
2023-02-09T13:34:52.234Z,8.40
2023-02-09T13:37:59.840Z,8.30
2023-02-09T13:41:02.302Z,8.20
2023-02-09T13:44:18.437Z,8.30
2023-02-09T13:47:21.257Z,8.40
2023-02-09T13:50:25.814Z,8.50
2023-02-09T13:53:29.911Z,8.40
2023-02-09T13:56:33.277Z,8.40
2023-02-09T13:59:35.690Z,8.10
2023-02-09T14:02:46.941Z,8.00
2023-02-09T14:06:18.843Z,7.90
2023-02-09T14:09:27.127Z,8.00
2023-02-09T14:12:44.059Z,7.90
2023-02-09T14:15:51.034Z,7.70
2023-02-09T14:18:54.274Z,7.90
2023-02-09T14:21:56.331Z,7.90
2023-02-09T14:24:58.203Z,7.80
2023-02-09T14:28:00.287Z,7.60
2023-02-09T14:31:02.478Z,7.70
2023-02-09T14:34:04.530Z,7.80
2023-02-09T14:37:15.878Z,7.70
2023-02-09T14:40:20.903Z,7.60
2023-02-09T14:43:25.073Z,7.60
2023-02-09T14:46:27.152Z,7.50
2023-02-09T14:49:31.533Z,7.40
2023-02-09T14:52:34.703Z,7.50
2023-02-09T14:55:37.011Z,7.50
2023-02-09T14:58:39.015Z,7.50
2023-02-09T15:01:40.936Z,7.40
2023-02-09T15:04:43.207Z,7.40
2023-02-09T15:07:48.990Z,7.20
2023-02-09T15:10:55.147Z,7.20
2023-02-09T15:13:59.894Z,7.10
2023-02-09T15:17:01.868Z,7.10
2023-02-09T15:20:04.260Z,7.20
2023-02-09T15:23:06.426Z,7.10
2023-02-09T15:26:15.114Z,7.00
2023-02-09T15:29:17.071Z,6.90
2023-02-09T15:32:20.282Z,6.90
2023-02-09T15:35:25.050Z,6.80
2023-02-09T15:38:27.344Z,6.80
2023-02-09T15:41:29.323Z,6.80
2023-02-09T15:44:31.308Z,6.80
2023-02-09T15:47:33.414Z,6.80
2023-02-09T15:50:40.020Z,6.80
2023-02-09T15:53:43.088Z,6.70
2023-02-09T15:56:44.919Z,6.60
2023-02-09T15:59:47.193Z,6.50
2023-02-09T16:02:49.215Z,6.50
2023-02-09T16:05:57.038Z,6.50
2023-02-09T16:08:59.105Z,6.40
2023-02-09T16:12:01.148Z,6.40
2023-02-09T16:15:03.130Z,6.40
2023-02-09T16:18:05.217Z,6.30
2023-02-09T16:21:07.231Z,6.30
2023-02-09T16:24:34.415Z,6.40
2023-02-09T16:27:36.204Z,6.30
2023-02-09T16:30:49.020Z,6.20
2023-02-09T16:33:51.825Z,5.80
2023-02-09T16:36:53.974Z,5.80
2023-02-09T16:39:56.466Z,5.60
2023-02-09T16:43:00.269Z,5.50
2023-02-09T16:46:04.704Z,5.40
2023-02-09T16:49:07.086Z,5.30
2023-02-09T16:52:21.327Z,5.30
2023-02-09T16:55:26.877Z,5.20
2023-02-09T16:58:28.905Z,4.90
2023-02-09T17:01:30.944Z,4.80
2023-02-09T17:04:33.037Z,4.80
2023-02-09T17:07:52.295Z,4.60
2023-02-09T17:10:56.669Z,4.50
2023-02-09T17:13:58.625Z,4.50
2023-02-09T17:17:02.985Z,4.00
2023-02-09T17:20:05.359Z,3.90
2023-02-09T17:23:07.429Z,3.80
2023-02-09T17:26:11.202Z,3.80
2023-02-09T17:29:13.213Z,3.70
2023-02-09T17:32:15.875Z,3.70
2023-02-09T17:35:34.452Z,3.60
2023-02-09T17:38:43.168Z,3.50
2023-02-09T17:41:46.220Z,3.60
2023-02-09T17:44:48.815Z,3.50
2023-02-09T17:47:53.360Z,3.40
2023-02-09T17:50:58.468Z,3.10
2023-02-09T17:54:01.618Z,3.00
2023-02-09T17:57:03.687Z,3.10
2023-02-09T18:00:06.230Z,2.90
2023-02-09T18:03:14.314Z,2.80
2023-02-09T18:06:18.732Z,2.80
2023-02-09T18:09:20.718Z,3.00
2023-02-09T18:12:25.280Z,3.00
2023-02-09T18:15:36.994Z,2.60
2023-02-09T18:18:38.889Z,2.60
2023-02-09T18:21:57.796Z,2.70
2023-02-09T18:24:59.670Z,2.50
2023-02-09T18:28:02.384Z,2.40
2023-02-09T18:31:04.700Z,2.40
2023-02-09T18:34:06.834Z,2.40
2023-02-09T18:37:11.239Z,2.40
2023-02-09T18:40:13.609Z,2.40
2023-02-09T18:43:15.528Z,2.30
2023-02-09T18:46:17.751Z,2.10
2023-02-09T18:49:19.655Z,2.30
2023-02-09T18:52:21.724Z,2.40
2023-02-09T18:55:25.852Z,1.90
2023-02-09T18:58:27.685Z,2.10
2023-02-09T19:01:29.554Z,2.10
2023-02-09T19:04:31.615Z,2.00
2023-02-09T19:07:35.194Z,2.30
2023-02-09T19:10:37.178Z,2.30
2023-02-09T19:13:39.062Z,1.90
2023-02-09T19:16:41.430Z,1.90
2023-02-09T19:19:44.938Z,2.00
2023-02-09T19:22:47.234Z,2.00
2023-02-09T19:25:49.714Z,1.90
2023-02-09T19:28:52.262Z,1.90
2023-02-09T19:31:55.192Z,1.80
2023-02-09T19:34:57.272Z,1.80
2023-02-09T19:37:59.526Z,1.80
2023-02-09T19:41:10.756Z,1.80
2023-02-09T19:44:13.256Z,1.80
2023-02-09T19:47:16.372Z,1.80
2023-02-09T19:50:18.926Z,1.80
2023-02-09T19:53:21.823Z,1.60
2023-02-09T19:56:23.944Z,1.80
2023-02-09T19:59:25.992Z,1.60
2023-02-09T20:02:28.089Z,1.70
2023-02-09T20:05:30.696Z,1.80
2023-02-09T20:08:32.775Z,1.50
2023-02-09T20:11:34.957Z,1.60
2023-02-09T20:14:37.181Z,1.80
2023-02-09T20:17:39.214Z,1.70
2023-02-09T20:20:41.775Z,1.70
2023-02-09T20:23:45.714Z,1.80
2023-02-09T20:26:49.283Z,1.80
2023-02-09T20:29:51.399Z,1.60
2023-02-09T20:32:53.655Z,1.30
2023-02-09T20:35:56.861Z,1.60
2023-02-09T20:38:59.223Z,1.40
2023-02-09T20:42:01.379Z,1.60
2023-02-09T20:45:05.795Z,1.60
2023-02-09T20:48:07.851Z,1.40
2023-02-09T20:51:09.835Z,1.50
2023-02-09T20:54:12.829Z,1.60
2023-02-09T20:57:15.019Z,1.60
2023-02-09T21:00:18.415Z,1.40
2023-02-09T21:03:20.506Z,1.70
2023-02-09T21:06:23.609Z,1.70
2023-02-09T21:09:26.046Z,1.60
2023-02-09T21:12:28.080Z,1.10
2023-02-09T21:15:30.132Z,1.00
2023-02-09T21:18:32.164Z,1.30
2023-02-09T21:21:34.160Z,1.30
2023-02-09T21:24:39.123Z,1.10
2023-02-09T21:27:41.318Z,1.10
2023-02-09T21:30:44.024Z,1.20
2023-02-09T21:33:46.190Z,1.10
2023-02-09T21:36:48.157Z,1.10
2023-02-09T21:39:49.994Z,1.20
2023-02-09T21:42:51.859Z,1.20
2023-02-09T21:45:53.714Z,1.00
2023-02-09T21:48:55.708Z,1.00
2023-02-09T21:52:00.344Z,1.00
2023-02-09T21:55:03.259Z,1.00
2023-02-09T21:58:07.612Z,1.00
2023-02-09T22:01:09.908Z,0.90
2023-02-09T22:04:11.913Z,1.00
2023-02-09T22:07:14.856Z,0.70
2023-02-09T22:10:17.551Z,0.90
2023-02-09T22:13:19.826Z,1.00
2023-02-09T22:16:22.891Z,1.00
2023-02-09T22:19:25.159Z,0.80
2023-02-09T22:22:27.116Z,0.90
2023-02-09T22:25:30.242Z,0.70
2023-02-09T22:28:35.157Z,0.60
2023-02-09T22:31:38.070Z,0.60
2023-02-09T22:34:39.916Z,0.80
2023-02-09T22:37:41.829Z,0.90
2023-02-09T22:40:43.703Z,0.70
2023-02-09T22:44:19.173Z,0.90
2023-02-09T22:47:21.064Z,0.50
2023-02-09T22:50:23.030Z,0.90
2023-02-09T22:53:27.096Z,0.80
2023-02-09T22:56:30.134Z,0.80
2023-02-09T22:59:32.228Z,0.90
2023-02-09T23:02:34.097Z,0.90
2023-02-09T23:05:35.846Z,1.00
2023-02-09T23:08:37.611Z,1.00
2023-02-09T23:11:39.447Z,1.20
2023-02-09T23:14:43.583Z,1.20
2023-02-09T23:17:45.407Z,1.00
2023-02-09T23:20:47.406Z,1.00
2023-02-09T23:23:49.670Z,1.00
2023-02-09T23:26:52.988Z,1.00
2023-02-09T23:29:54.998Z,1.10
2023-02-09T23:32:56.853Z,1.00
2023-02-09T23:35:58.908Z,1.00
2023-02-09T23:39:04.054Z,1.00
2023-02-09T23:42:05.911Z,1.20
2023-02-09T23:45:08.197Z,1.10
2023-02-09T23:48:10.193Z,1.00
2023-02-09T23:51:17.752Z,1.00
2023-02-09T23:54:22.082Z,1.10
2023-02-09T23:57:23.957Z,1.20
